Victory — WDB9496 — position and weather

sailwx.info

Track history (hours):
 
Tides and Currents Weather Stations Pressure Air Temp Water Temp Dewpoint Dewpoint Depression Visibility Wind Speed Wind Dir Waves Ship Positions

Victory

Owner: XENIOS, GEORGE, WILMINGTON, CA. More information available from US FCC via Universal Licensing System and Coast Guard Vessel Documentation Center.

Last reported at 2018-Jun-17 23:38 UTC. Time now 2018-Jun-18 13:13 UTC.
Position N 33°44' W 118°11'.

Length 5 m; draft 2 m.

Type: Passenger vessel. MMSI: 366977270.

Date/timePositionNaut miles runAvg speedWind from/ knotsBaromVisibWave heightAir tempDewpointWater temp
2018-Jun-17 23:38N 33°44' W 118°11'1 8.5
2018-Jun-17 23:30N 33°43' W 118°11'4 8.6
2018-Jun-17 23:00N 33°38' W 118°12'0 0.1
2018-Jun-17 22:29N 33°38' W 118°12'0 0.6
2018-Jun-17 22:00N 33°39' W 118°12'1 1.7
2018-Jun-17 21:30N 33°39' W 118°12'1 1.3
2018-Jun-17 21:00N 33°40' W 118°13'1 2.3
2018-Jun-17 20:30N 33°40' W 118°14'4 7.5
2018-Jun-17 19:58N 33°36' W 118°12'1 2.0
2018-Jun-17 19:30N 33°36' W 118°11'0 0.1
2018-Jun-17 19:00N 33°36' W 118°11'0 0.3
2018-Jun-17 18:30N 33°36' W 118°11'0 0.1
2018-Jun-17 18:00N 33°36' W 118°11'1 2.9
2018-Jun-17 17:30N 33°37' W 118°11'3 5.2
2018-Jun-17 17:00N 33°39' W 118°13'1 1.5
2018-Jun-17 16:30N 33°40' W 118°13'0 0.0
2018-Jun-17 16:00N 33°40' W 118°13'0 0.1
2018-Jun-17 15:29N 33°40' W 118°13'0 0.1
2018-Jun-17 15:00N 33°40' W 118°13'3 6.5
2018-Jun-17 14:30N 33°42' W 118°11'2 4.9
2018-Jun-17 14:00N 33°44' W 118°08'3 5.2
2018-Jun-17 13:30N 33°44' W 118°11'3 5.2
2018-Jun-17 13:00N 33°46' W 118°13'5 0.4
2018-Jun-16 22:41N 33°41' W 118°14'1 8.1
2018-Jun-16 22:30N 33°40' W 118°14'1 1.8
2018-Jun-16 22:00N 33°39' W 118°13'0 1.0
2018-Jun-16 21:30N 33°40' W 118°14'0 0.0
2018-Jun-16 21:00N 33°40' W 118°14'1 1.0
2018-Jun-16 20:30N 33°40' W 118°13'1 1.1
2018-Jun-16 19:59N 33°40' W 118°14'0 0.5
2018-Jun-16 19:30N 33°40' W 118°14'4 8.2
2018-Jun-16 18:59N 33°36' W 118°11'0 0.5
2018-Jun-16 18:30N 33°36' W 118°11'0 0.4
2018-Jun-16 18:00N 33°36' W 118°11'0 0.0
2018-Jun-16 17:30N 33°36' W 118°11'1 1.8
2018-Jun-16 17:00N 33°37' W 118°12'0 0.0
2018-Jun-16 16:30N 33°37' W 118°12'0 0.0
2018-Jun-16 16:00N 33°37' W 118°12'1 2.0
2018-Jun-16 15:30N 33°37' W 118°11'4 8.2
2018-Jun-16 14:59N 33°41' W 118°09'2 4.8
2018-Jun-16 14:30N 33°44' W 118°08'3 6.2
2018-Jun-16 14:00N 33°44' W 118°12'2 4.7
2018-Jun-16 13:30N 33°46' W 118°13'0 0.0
2018-Jun-16 13:00N 33°46' W 118°13'2 0.2
2018-Jun-15 23:15N 33°44' W 118°13'1 4.8
2018-Jun-15 23:00N 33°43' W 118°14'2 4.9
2018-Jun-15 22:30N 33°41' W 118°15'1 2.8
2018-Jun-15 22:00N 33°39' W 118°14'0 0.0
2018-Jun-15 21:30N 33°39' W 118°14'0 0.0
2018-Jun-15 21:00N 33°39' W 118°14'1 2.8
2018-Jun-15 20:30N 33°39' W 118°12'2 3.2
2018-Jun-15 20:00N 33°40' W 118°14'0 0.0
2018-Jun-15 19:31N 33°40' W 118°14'0 0.5
2018-Jun-15 19:00N 33°40' W 118°13'0 0.4
2018-Jun-15 18:31N 33°40' W 118°13'0 0.1
2018-Jun-15 18:00N 33°40' W 118°14'0 0.3
2018-Jun-15 17:30N 33°39' W 118°14'3 5.7
2018-Jun-15 17:01N 33°37' W 118°12'0 0.9
2018-Jun-15 16:28N 33°37' W 118°12'0 0.0
2018-Jun-15 16:00N 33°37' W 118°12'0 0.0
2018-Jun-15 15:30N 33°37' W 118°12'1 2.5
2018-Jun-15 15:00N 33°37' W 118°10'4 8.2
2018-Jun-15 14:30N 33°41' W 118°09'2 4.7
2018-Jun-15 14:00N 33°44' W 118°08'3 7.0
2018-Jun-15 13:30N 33°44' W 118°12'2 4.0
2018-Jun-15 12:59N 33°46' W 118°13'5 0.3
2018-Jun-14 22:59N 33°42' W 118°15'3 5.4
2018-Jun-14 22:30N 33°40' W 118°14'0 0.0
2018-Jun-14 21:59N 33°40' W 118°14'0 0.0
2018-Jun-14 21:29N 33°40' W 118°14'0 0.0
2018-Jun-14 21:00N 33°40' W 118°14'0 0.0
2018-Jun-14 20:29N 33°40' W 118°14'1 2.2
2018-Jun-14 20:00N 33°39' W 118°13'4 7.5
2018-Jun-14 19:30N 33°36' W 118°11'0 0.0
2018-Jun-14 19:00N 33°36' W 118°11'0 0.1
2018-Jun-14 18:30N 33°36' W 118°11'0 0.4
2018-Jun-14 18:00N 33°36' W 118°11'1 2.0
2018-Jun-14 17:31N 33°37' W 118°12'0 0.2
2018-Jun-14 17:00N 33°37' W 118°12'0 0.1
2018-Jun-14 16:30N 33°37' W 118°12'0 0.0
2018-Jun-14 16:00N 33°37' W 118°12'1 2.1
2018-Jun-14 15:30N 33°37' W 118°11'4 8.1
2018-Jun-14 15:00N 33°41' W 118°09'3 5.1
2018-Jun-14 14:30N 33°44' W 118°08'0 0.0
2018-Jun-14 14:00N 33°43' W 118°08'3 5.7
2018-Jun-14 13:30N 33°44' W 118°12'2 4.9
2018-Jun-14 13:00N 33°46' W 118°13'1 0.1
2018-Jun-13 23:40N 33°45' W 118°13'1 6.2
2018-Jun-13 23:29N 33°44' W 118°13'3 6.0
2018-Jun-13 23:00N 33°42' W 118°14'2 4.2
2018-Jun-13 22:30N 33°40' W 118°14'0 0.0
2018-Jun-13 21:59N 33°40' W 118°14'0 0.8
2018-Jun-13 21:30N 33°40' W 118°13'0 0.1
2018-Jun-13 21:00N 33°40' W 118°13'1 2.5
2018-Jun-13 20:30N 33°39' W 118°12'1 1.4
2018-Jun-13 20:00N 33°39' W 118°11'4 7.8
2018-Jun-13 19:30N 33°39' W 118°06'1 1.1
2018-Jun-13 19:00N 33°40' W 118°06'0 0.7
2018-Jun-13 18:30N 33°39' W 118°06'4 8.4
2018-Jun-13 18:00N 33°37' W 118°11'1 2.0
2018-Jun-13 17:30N 33°37' W 118°12'0 0.0
2018-Jun-13 17:00N 33°37' W 118°12'0 0.1
2018-Jun-13 16:28N 33°37' W 118°12'0 0.0
2018-Jun-13 16:00N 33°37' W 118°12'0 0.0
2018-Jun-13 15:30N 33°37' W 118°12'2 3.5
2018-Jun-13 15:00N 33°38' W 118°11'4 8.8
2018-Jun-13 14:30N 33°43' W 118°11'1 2.4
2018-Jun-13 14:00N 33°44' W 118°11'2 3.6
2018-Jun-13 13:30N 33°45' W 118°13'2 3.3
2018-Jun-13 12:59N 33°46' W 118°13'2 0.1
2018-Jun-13 00:27N 33°45' W 118°13'4 9.0
2018-Jun-13 00:01N 33°41' W 118°16'5 9.3
2018-Jun-12 23:30N 33°38' W 118°20'9 8.8
2018-Jun-12 22:26N 33°31' W 118°27'4 7.4
2018-Jun-12 21:56N 33°28' W 118°29'0 0.0
2018-Jun-12 21:31N 33°28' W 118°29'0 0.6
2018-Jun-12 21:01N 33°28' W 118°29'0 0.6
2018-Jun-12 20:29N 33°27' W 118°29'0 0.4
2018-Jun-12 20:00N 33°27' W 118°29'0 0.1
2018-Jun-12 19:02N 33°27' W 118°29'0 3.2
2018-Jun-12 19:00N 33°27' W 118°30'3 4.4
2018-Jun-12 18:19N 33°26' W 118°26'0 0.4
2018-Jun-12 17:29N 33°26' W 118°26'3 5.4
2018-Jun-12 16:55N 33°28' W 118°23'4 8.2
2018-Jun-12 16:25N 33°31' W 118°20'3 8.2
2018-Jun-12 16:00N 33°34' W 118°17'4 8.0
2018-Jun-12 15:30N 33°37' W 118°14'4 8.2
2018-Jun-12 15:00N 33°40' W 118°11'4 8.1
2018-Jun-12 14:30N 33°43' W 118°08'5 0.3
2018-Jun-11 23:02N 33°43' W 118°14'0 8.6
2018-Jun-11 23:00N 33°43' W 118°15'3 5.6
2018-Jun-11 22:30N 33°40' W 118°13'1 1.5
2018-Jun-11 22:00N 33°40' W 118°12'0 0.4
2018-Jun-11 21:30N 33°40' W 118°12'1 1.4
2018-Jun-11 21:00N 33°39' W 118°13'4 7.0
2018-Jun-11 20:29N 33°36' W 118°10'3 5.1
2018-Jun-11 19:56N 33°34' W 118°08'0 0.0
2018-Jun-11 19:30N 33°34' W 118°08'0 0.0
2018-Jun-11 19:00N 33°34' W 118°08'0 0.1
2018-Jun-11 18:30N 33°34' W 118°08'2 4.1
2018-Jun-11 18:00N 33°36' W 118°10'0 0.5
2018-Jun-11 17:30N 33°36' W 118°11'1 1.2
2018-Jun-11 17:00N 33°36' W 118°11'0 0.1
2018-Jun-11 16:30N 33°36' W 118°11'0 0.3
2018-Jun-11 16:00N 33°36' W 118°11'0 0.0
2018-Jun-11 15:30N 33°36' W 118°11'1 2.2
2018-Jun-11 15:00N 33°37' W 118°12'1 2.4
2018-Jun-11 14:30N 33°38' W 118°11'4 7.3
2018-Jun-11 14:00N 33°41' W 118°12'3 6.4
2018-Jun-11 13:30N 33°44' W 118°13'1 0.1
2018-Jun-10 23:23N 33°46' W 118°13'3 7.4
2018-Jun-10 23:00N 33°44' W 118°11'4 8.2
2018-Jun-10 22:30N 33°41' W 118°08'2 3.3
2018-Jun-10 22:00N 33°39' W 118°07'1 1.5
2018-Jun-10 21:30N 33°39' W 118°06'0 0.3
2018-Jun-10 21:00N 33°40' W 118°06'1 2.1
2018-Jun-10 20:30N 33°39' W 118°06'4 9.0
2018-Jun-10 20:00N 33°35' W 118°08'0 0.5
2018-Jun-10 19:30N 33°34' W 118°09'0 0.0
2018-Jun-10 19:00N 33°34' W 118°09'0 0.0
2018-Jun-10 18:30N 33°34' W 118°09'2 4.0
2018-Jun-10 18:00N 33°36' W 118°11'1 1.0
2018-Jun-10 17:30N 33°36' W 118°11'0 0.5
2018-Jun-10 16:54N 33°36' W 118°11'1 1.8
2018-Jun-10 16:29N 33°37' W 118°12'0 0.1
2018-Jun-10 16:00N 33°37' W 118°12'0 0.4
2018-Jun-10 15:30N 33°37' W 118°11'4 7.9
2018-Jun-10 14:59N 33°41' W 118°10'3 5.8
2018-Jun-10 14:27N 33°44' W 118°08'2 0.1
2018-Jun-09 22:46N 33°43' W 118°10'2 7.3
2018-Jun-09 22:28N 33°41' W 118°08'3 6.1
2018-Jun-09 21:58N 33°39' W 118°05'0 0.4
2018-Jun-09 21:25N 33°39' W 118°05'3 4.7
2018-Jun-09 20:47N 33°40' W 118°09'2 8.8
2018-Jun-09 20:30N 33°39' W 118°12'1 2.0
2018-Jun-09 20:00N 33°40' W 118°13'0 0.0
2018-Jun-09 19:29N 33°40' W 118°13'2 3.4
2018-Jun-09 19:00N 33°38' W 118°13'0 0.1
2018-Jun-09 18:30N 33°38' W 118°13'1 1.8
2018-Jun-09 18:00N 33°39' W 118°14'0 0.3
2018-Jun-09 17:30N 33°39' W 118°14'1 1.7
2018-Jun-09 16:53N 33°38' W 118°15'3 7.5
2018-Jun-09 16:26N 33°37' W 118°12'0 0.2
2018-Jun-09 15:59N 33°37' W 118°12'0 0.0
2018-Jun-09 15:00N 33°37' W 118°12'0 0.1
2018-Jun-09 14:30N 33°37' W 118°12'4 7.6
2018-Jun-09 14:00N 33°40' W 118°11'4 7.8
2018-Jun-09 13:30N 33°44' W 118°12'2 4.5
2018-Jun-09 13:00N 33°46' W 118°13'4 0.3
2018-Jun-08 22:32N 33°42' W 118°15'0 8.4
2018-Jun-08 22:30N 33°42' W 118°14'3 5.3
2018-Jun-08 21:59N 33°40' W 118°13'0 0.0
2018-Jun-08 21:30N 33°40' W 118°13'0 0.5
2018-Jun-08 20:59N 33°40' W 118°13'2 2.9
2018-Jun-08 20:28N 33°39' W 118°12'0 0.8
2018-Jun-08 20:00N 33°38' W 118°12'2 2.9
2018-Jun-08 19:25N 33°37' W 118°12'0 0.0
2018-Jun-08 19:00N 33°37' W 118°12'0 0.1
2018-Jun-08 18:30N 33°37' W 118°12'5 4.9
2018-Jun-08 17:31N 33°39' W 118°07'0 2.2
2018-Jun-08 17:30N 33°39' W 118°07'0 0.5
2018-Jun-08 16:56N 33°39' W 118°06'0 0.1
2018-Jun-08 15:13N 33°39' W 118°07'2 9.4
2018-Jun-08 15:00N 33°40' W 118°09'4 7.8
2018-Jun-08 14:30N 33°44' W 118°08'0 0.0
2018-Jun-08 14:00N 33°44' W 118°08'4 7.9
2018-Jun-08 13:30N 33°45' W 118°13'2 3.1
2018-Jun-08 13:00N 33°46' W 118°13'  
Track history (hours):
 
Tides and Currents Weather Stations Pressure Air Temp Water Temp Dewpoint Dewpoint Depression Visibility Wind Speed Wind Dir Waves Ship Positions

Victory

Owner: XENIOS, GEORGE, WILMINGTON, CA. More information available from US FCC via Universal Licensing System and Coast Guard Vessel Documentation Center.

Last reported at 2018-Jun-17 23:38 UTC. Time now 2018-Jun-18 13:13 UTC.
Position N 33°44' W 118°11'.

Length 5 m; draft 2 m.

Type: Passenger vessel. MMSI: 366977270.

Date/timePositionNaut miles runAvg speedWind from/ knotsBaromVisibWave heightAir tempDewpointWater temp
2018-Jun-17 23:38N 33°44' W 118°11'1 8.5
2018-Jun-17 23:30N 33°43' W 118°11'4 8.6
2018-Jun-17 23:00N 33°38' W 118°12'0 0.1
2018-Jun-17 22:29N 33°38' W 118°12'0 0.6
2018-Jun-17 22:00N 33°39' W 118°12'1 1.7
2018-Jun-17 21:30N 33°39' W 118°12'1 1.3
2018-Jun-17 21:00N 33°40' W 118°13'1 2.3
2018-Jun-17 20:30N 33°40' W 118°14'4 7.5
2018-Jun-17 19:58N 33°36' W 118°12'1 2.0
2018-Jun-17 19:30N 33°36' W 118°11'0 0.1
2018-Jun-17 19:00N 33°36' W 118°11'0 0.3
2018-Jun-17 18:30N 33°36' W 118°11'0 0.1
2018-Jun-17 18:00N 33°36' W 118°11'1 2.9
2018-Jun-17 17:30N 33°37' W 118°11'3 5.2
2018-Jun-17 17:00N 33°39' W 118°13'1 1.5
2018-Jun-17 16:30N 33°40' W 118°13'0 0.0
2018-Jun-17 16:00N 33°40' W 118°13'0 0.1
2018-Jun-17 15:29N 33°40' W 118°13'0 0.1
2018-Jun-17 15:00N 33°40' W 118°13'3 6.5
2018-Jun-17 14:30N 33°42' W 118°11'2 4.9
2018-Jun-17 14:00N 33°44' W 118°08'3 5.2
2018-Jun-17 13:30N 33°44' W 118°11'3 5.2
2018-Jun-17 13:00N 33°46' W 118°13'5 0.4
2018-Jun-16 22:41N 33°41' W 118°14'1 8.1
2018-Jun-16 22:30N 33°40' W 118°14'1 1.8
2018-Jun-16 22:00N 33°39' W 118°13'0 1.0
2018-Jun-16 21:30N 33°40' W 118°14'0 0.0
2018-Jun-16 21:00N 33°40' W 118°14'1 1.0
2018-Jun-16 20:30N 33°40' W 118°13'1 1.1
2018-Jun-16 19:59N 33°40' W 118°14'0 0.5
2018-Jun-16 19:30N 33°40' W 118°14'4 8.2
2018-Jun-16 18:59N 33°36' W 118°11'0 0.5
2018-Jun-16 18:30N 33°36' W 118°11'0 0.4
2018-Jun-16 18:00N 33°36' W 118°11'0 0.0
2018-Jun-16 17:30N 33°36' W 118°11'1 1.8
2018-Jun-16 17:00N 33°37' W 118°12'0 0.0
2018-Jun-16 16:30N 33°37' W 118°12'0 0.0
2018-Jun-16 16:00N 33°37' W 118°12'1 2.0
2018-Jun-16 15:30N 33°37' W 118°11'4 8.2
2018-Jun-16 14:59N 33°41' W 118°09'2 4.8
2018-Jun-16 14:30N 33°44' W 118°08'3 6.2
2018-Jun-16 14:00N 33°44' W 118°12'2 4.7
2018-Jun-16 13:30N 33°46' W 118°13'0 0.0
2018-Jun-16 13:00N 33°46' W 118°13'2 0.2
2018-Jun-15 23:15N 33°44' W 118°13'1 4.8
2018-Jun-15 23:00N 33°43' W 118°14'2 4.9
2018-Jun-15 22:30N 33°41' W 118°15'1 2.8
2018-Jun-15 22:00N 33°39' W 118°14'0 0.0
2018-Jun-15 21:30N 33°39' W 118°14'0 0.0
2018-Jun-15 21:00N 33°39' W 118°14'1 2.8
2018-Jun-15 20:30N 33°39' W 118°12'2 3.2
2018-Jun-15 20:00N 33°40' W 118°14'0 0.0
2018-Jun-15 19:31N 33°40' W 118°14'0 0.5
2018-Jun-15 19:00N 33°40' W 118°13'0 0.4
2018-Jun-15 18:31N 33°40' W 118°13'0 0.1
2018-Jun-15 18:00N 33°40' W 118°14'0 0.3
2018-Jun-15 17:30N 33°39' W 118°14'3 5.7
2018-Jun-15 17:01N 33°37' W 118°12'0 0.9
2018-Jun-15 16:28N 33°37' W 118°12'0 0.0
2018-Jun-15 16:00N 33°37' W 118°12'0 0.0
2018-Jun-15 15:30N 33°37' W 118°12'1 2.5
2018-Jun-15 15:00N 33°37' W 118°10'4 8.2
2018-Jun-15 14:30N 33°41' W 118°09'2 4.7
2018-Jun-15 14:00N 33°44' W 118°08'3 7.0
2018-Jun-15 13:30N 33°44' W 118°12'2 4.0
2018-Jun-15 12:59N 33°46' W 118°13'5 0.3
2018-Jun-14 22:59N 33°42' W 118°15'3 5.4
2018-Jun-14 22:30N 33°40' W 118°14'0 0.0
2018-Jun-14 21:59N 33°40' W 118°14'0 0.0
2018-Jun-14 21:29N 33°40' W 118°14'0 0.0
2018-Jun-14 21:00N 33°40' W 118°14'0 0.0
2018-Jun-14 20:29N 33°40' W 118°14'1 2.2
2018-Jun-14 20:00N 33°39' W 118°13'4 7.5
2018-Jun-14 19:30N 33°36' W 118°11'0 0.0
2018-Jun-14 19:00N 33°36' W 118°11'0 0.1
2018-Jun-14 18:30N 33°36' W 118°11'0 0.4
2018-Jun-14 18:00N 33°36' W 118°11'1 2.0
2018-Jun-14 17:31N 33°37' W 118°12'0 0.2
2018-Jun-14 17:00N 33°37' W 118°12'0 0.1
2018-Jun-14 16:30N 33°37' W 118°12'0 0.0
2018-Jun-14 16:00N 33°37' W 118°12'1 2.1
2018-Jun-14 15:30N 33°37' W 118°11'4 8.1
2018-Jun-14 15:00N 33°41' W 118°09'3 5.1
2018-Jun-14 14:30N 33°44' W 118°08'0 0.0
2018-Jun-14 14:00N 33°43' W 118°08'3 5.7
2018-Jun-14 13:30N 33°44' W 118°12'2 4.9
2018-Jun-14 13:00N 33°46' W 118°13'1 0.1
2018-Jun-13 23:40N 33°45' W 118°13'1 6.2
2018-Jun-13 23:29N 33°44' W 118°13'3 6.0
2018-Jun-13 23:00N 33°42' W 118°14'2 4.2
2018-Jun-13 22:30N 33°40' W 118°14'0 0.0
2018-Jun-13 21:59N 33°40' W 118°14'0 0.8
2018-Jun-13 21:30N 33°40' W 118°13'0 0.1
2018-Jun-13 21:00N 33°40' W 118°13'1 2.5
2018-Jun-13 20:30N 33°39' W 118°12'1 1.4
2018-Jun-13 20:00N 33°39' W 118°11'4 7.8
2018-Jun-13 19:30N 33°39' W 118°06'1 1.1
2018-Jun-13 19:00N 33°40' W 118°06'0 0.7
2018-Jun-13 18:30N 33°39' W 118°06'4 8.4
2018-Jun-13 18:00N 33°37' W 118°11'1 2.0
2018-Jun-13 17:30N 33°37' W 118°12'0 0.0
2018-Jun-13 17:00N 33°37' W 118°12'0 0.1
2018-Jun-13 16:28N 33°37' W 118°12'0 0.0
2018-Jun-13 16:00N 33°37' W 118°12'0 0.0
2018-Jun-13 15:30N 33°37' W 118°12'2 3.5
2018-Jun-13 15:00N 33°38' W 118°11'4 8.8
2018-Jun-13 14:30N 33°43' W 118°11'1 2.4
2018-Jun-13 14:00N 33°44' W 118°11'2 3.6
2018-Jun-13 13:30N 33°45' W 118°13'2 3.3
2018-Jun-13 12:59N 33°46' W 118°13'2 0.1
2018-Jun-13 00:27N 33°45' W 118°13'4 9.0
2018-Jun-13 00:01N 33°41' W 118°16'5 9.3
2018-Jun-12 23:30N 33°38' W 118°20'9 8.8
2018-Jun-12 22:26N 33°31' W 118°27'4 7.4
2018-Jun-12 21:56N 33°28' W 118°29'0 0.0
2018-Jun-12 21:31N 33°28' W 118°29'0 0.6
2018-Jun-12 21:01N 33°28' W 118°29'0 0.6
2018-Jun-12 20:29N 33°27' W 118°29'0 0.4
2018-Jun-12 20:00N 33°27' W 118°29'0 0.1
2018-Jun-12 19:02N 33°27' W 118°29'0 3.2
2018-Jun-12 19:00N 33°27' W 118°30'3 4.4
2018-Jun-12 18:19N 33°26' W 118°26'0 0.4
2018-Jun-12 17:29N 33°26' W 118°26'3 5.4
2018-Jun-12 16:55N 33°28' W 118°23'4 8.2
2018-Jun-12 16:25N 33°31' W 118°20'3 8.2
2018-Jun-12 16:00N 33°34' W 118°17'4 8.0
2018-Jun-12 15:30N 33°37' W 118°14'4 8.2
2018-Jun-12 15:00N 33°40' W 118°11'4 8.1
2018-Jun-12 14:30N 33°43' W 118°08'5 0.3
2018-Jun-11 23:02N 33°43' W 118°14'0 8.6
2018-Jun-11 23:00N 33°43' W 118°15'3 5.6
2018-Jun-11 22:30N 33°40' W 118°13'1 1.5
2018-Jun-11 22:00N 33°40' W 118°12'0 0.4
2018-Jun-11 21:30N 33°40' W 118°12'1 1.4
2018-Jun-11 21:00N 33°39' W 118°13'4 7.0
2018-Jun-11 20:29N 33°36' W 118°10'3 5.1
2018-Jun-11 19:56N 33°34' W 118°08'0 0.0
2018-Jun-11 19:30N 33°34' W 118°08'0 0.0
2018-Jun-11 19:00N 33°34' W 118°08'0 0.1
2018-Jun-11 18:30N 33°34' W 118°08'2 4.1
2018-Jun-11 18:00N 33°36' W 118°10'0 0.5
2018-Jun-11 17:30N 33°36' W 118°11'1 1.2
2018-Jun-11 17:00N 33°36' W 118°11'0 0.1
2018-Jun-11 16:30N 33°36' W 118°11'0 0.3
2018-Jun-11 16:00N 33°36' W 118°11'0 0.0
2018-Jun-11 15:30N 33°36' W 118°11'1 2.2
2018-Jun-11 15:00N 33°37' W 118°12'1 2.4
2018-Jun-11 14:30N 33°38' W 118°11'4 7.3
2018-Jun-11 14:00N 33°41' W 118°12'3 6.4
2018-Jun-11 13:30N 33°44' W 118°13'1 0.1
2018-Jun-10 23:23N 33°46' W 118°13'3 7.4
2018-Jun-10 23:00N 33°44' W 118°11'4 8.2
2018-Jun-10 22:30N 33°41' W 118°08'2 3.3
2018-Jun-10 22:00N 33°39' W 118°07'1 1.5
2018-Jun-10 21:30N 33°39' W 118°06'0 0.3
2018-Jun-10 21:00N 33°40' W 118°06'1 2.1
2018-Jun-10 20:30N 33°39' W 118°06'4 9.0
2018-Jun-10 20:00N 33°35' W 118°08'0 0.5
2018-Jun-10 19:30N 33°34' W 118°09'0 0.0
2018-Jun-10 19:00N 33°34' W 118°09'0 0.0
2018-Jun-10 18:30N 33°34' W 118°09'2 4.0
2018-Jun-10 18:00N 33°36' W 118°11'1 1.0
2018-Jun-10 17:30N 33°36' W 118°11'0 0.5
2018-Jun-10 16:54N 33°36' W 118°11'1 1.8
2018-Jun-10 16:29N 33°37' W 118°12'0 0.1
2018-Jun-10 16:00N 33°37' W 118°12'0 0.4
2018-Jun-10 15:30N 33°37' W 118°11'4 7.9
2018-Jun-10 14:59N 33°41' W 118°10'3 5.8
2018-Jun-10 14:27N 33°44' W 118°08'2 0.1
2018-Jun-09 22:46N 33°43' W 118°10'2 7.3
2018-Jun-09 22:28N 33°41' W 118°08'3 6.1
2018-Jun-09 21:58N 33°39' W 118°05'0 0.4
2018-Jun-09 21:25N 33°39' W 118°05'3 4.7
2018-Jun-09 20:47N 33°40' W 118°09'2 8.8
2018-Jun-09 20:30N 33°39' W 118°12'1 2.0
2018-Jun-09 20:00N 33°40' W 118°13'0 0.0
2018-Jun-09 19:29N 33°40' W 118°13'2 3.4
2018-Jun-09 19:00N 33°38' W 118°13'0 0.1
2018-Jun-09 18:30N 33°38' W 118°13'1 1.8
2018-Jun-09 18:00N 33°39' W 118°14'0 0.3
2018-Jun-09 17:30N 33°39' W 118°14'1 1.7
2018-Jun-09 16:53N 33°38' W 118°15'3 7.5
2018-Jun-09 16:26N 33°37' W 118°12'0 0.2
2018-Jun-09 15:59N 33°37' W 118°12'0 0.0
2018-Jun-09 15:00N 33°37' W 118°12'0 0.1
2018-Jun-09 14:30N 33°37' W 118°12'4 7.6
2018-Jun-09 14:00N 33°40' W 118°11'4 7.8
2018-Jun-09 13:30N 33°44' W 118°12'2 4.5
2018-Jun-09 13:00N 33°46' W 118°13'4 0.3
2018-Jun-08 22:32N 33°42' W 118°15'0 8.4
2018-Jun-08 22:30N 33°42' W 118°14'3 5.3
2018-Jun-08 21:59N 33°40' W 118°13'0 0.0
2018-Jun-08 21:30N 33°40' W 118°13'0 0.5
2018-Jun-08 20:59N 33°40' W 118°13'2 2.9
2018-Jun-08 20:28N 33°39' W 118°12'0 0.8
2018-Jun-08 20:00N 33°38' W 118°12'2 2.9
2018-Jun-08 19:25N 33°37' W 118°12'0 0.0
2018-Jun-08 19:00N 33°37' W 118°12'0 0.1
2018-Jun-08 18:30N 33°37' W 118°12'5 4.9
2018-Jun-08 17:31N 33°39' W 118°07'0 2.2
2018-Jun-08 17:30N 33°39' W 118°07'0 0.5
2018-Jun-08 16:56N 33°39' W 118°06'0 0.1
2018-Jun-08 15:13N 33°39' W 118°07'2 9.4
2018-Jun-08 15:00N 33°40' W 118°09'4 7.8
2018-Jun-08 14:30N 33°44' W 118°08'0 0.0
2018-Jun-08 14:00N 33°44' W 118°08'4 7.9
2018-Jun-08 13:30N 33°45' W 118°13'2 3.1
2018-Jun-08 13:00N 33°46' W 118°13'  

Dump ship's entire track history